sensor_id;sensor_type;location;lat;lon;timestamp;pressure;altitude;pressure_sealevel;temperature;humidity
27425;BME280;15244;49.088;11.886;2023-04-08T00:00:32;95820.44;;;9.89;34.65
27425;BME280;15244;49.088;11.886;2023-04-08T00:05:47;95813.00;;;9.82;34.74
27425;BME280;15244;49.088;11.886;2023-04-08T00:11:16;95814.94;;;9.82;34.77
27425;BME280;15244;49.088;11.886;2023-04-08T00:16:31;95821.13;;;9.75;34.87
27425;BME280;15244;49.088;11.886;2023-04-08T00:22:00;95820.72;;;9.73;34.72
27425;BME280;15244;49.088;11.886;2023-04-08T00:27:15;95824.56;;;9.68;34.57
27425;BME280;15244;49.088;11.886;2023-04-08T00:32:46;95830.78;;;9.69;34.48
27425;BME280;15244;49.088;11.886;2023-04-08T00:38:01;95823.03;;;9.74;34.32
27425;BME280;15244;49.088;11.886;2023-04-08T00:43:30;95823.84;;;9.75;34.08
27425;BME280;15244;49.088;11.886;2023-04-08T00:48:45;95830.06;;;9.75;34.18
27425;BME280;15244;49.088;11.886;2023-04-08T00:54:14;95834.72;;;9.75;34.04
27425;BME280;15244;49.088;11.886;2023-04-08T00:59:30;95837.81;;;9.73;33.56
27425;BME280;15244;49.088;11.886;2023-04-08T01:05:04;95840.91;;;9.72;33.66
27425;BME280;15244;49.088;11.886;2023-04-08T01:10:32;95839.00;;;9.72;33.63
27425;BME280;15244;49.088;11.886;2023-04-08T01:16:03;95831.59;;;9.73;33.79
27425;BME280;15244;49.088;11.886;2023-04-08T01:21:19;95839.00;;;9.72;33.93
27425;BME280;15244;49.088;11.886;2023-04-08T01:26:49;95831.59;;;9.73;34.05
27425;BME280;15244;49.088;11.886;2023-04-08T01:32:05;95835.47;;;9.72;33.88
27425;BME280;15244;49.088;11.886;2023-04-08T01:37:36;95832.78;;;9.75;34.24
27425;BME280;15244;49.088;11.886;2023-04-08T01:42:55;95837.47;;;9.75;34.20
27425;BME280;15244;49.088;11.886;2023-04-08T01:48:24;95831.19;;;9.71;34.53
27425;BME280;15244;49.088;11.886;2023-04-08T01:53:40;95825.72;;;9.67;34.58
27425;BME280;15244;49.088;11.886;2023-04-08T01:59:13;95831.13;;;9.64;34.33
27425;BME280;15244;49.088;11.886;2023-04-08T02:04:29;95831.03;;;9.57;34.39
27425;BME280;15244;49.088;11.886;2023-04-08T02:09:58;95827.13;;;9.54;34.67
27425;BME280;15244;49.088;11.886;2023-04-08T02:15:13;95827.88;;;9.51;35.00
27425;BME280;15244;49.088;11.886;2023-04-08T02:20:47;95830.56;;;9.47;35.16
27425;BME280;15244;49.088;11.886;2023-04-08T02:26:12;95823.13;;;9.44;35.25
27425;BME280;15244;49.088;11.886;2023-04-08T02:31:42;95836.31;;;9.39;35.34
27425;BME280;15244;49.088;11.886;2023-04-08T02:36:57;95831.63;;;9.39;35.42
27425;BME280;15244;49.088;11.886;2023-04-08T02:42:26;95834.31;;;9.32;35.57
27425;BME280;15244;49.088;11.886;2023-04-08T02:47:41;95833.88;;;9.30;35.68
27425;BME280;15244;49.088;11.886;2023-04-08T02:53:10;95831.97;;;9.34;35.67
27425;BME280;15244;49.088;11.886;2023-04-08T02:58:25;95838.22;;;9.35;35.58
27425;BME280;15244;49.088;11.886;2023-04-08T03:03:54;95827.72;;;9.37;35.63
27425;BME280;15244;49.088;11.886;2023-04-08T03:09:16;95829.34;;;9.41;35.73
27425;BME280;15244;49.088;11.886;2023-04-08T03:14:45;95837.56;;;9.45;35.69
27425;BME280;15244;49.088;11.886;2023-04-08T03:20:01;95843.78;;;9.45;36.08
27425;BME280;15244;49.088;11.886;2023-04-08T03:25:30;95835.97;;;9.44;35.85
27425;BME280;15244;49.088;11.886;2023-04-08T03:30:45;95832.06;;;9.41;35.80
27425;BME280;15244;49.088;11.886;2023-04-08T03:36:14;95847.56;;;9.37;35.91
27425;BME280;15244;49.088;11.886;2023-04-08T03:41:29;95849.50;;;9.37;36.13
27425;BME280;15244;49.088;11.886;2023-04-08T03:46:58;95847.97;;;9.39;36.42
27425;BME280;15244;49.088;11.886;2023-04-08T03:52:13;95851.84;;;9.38;36.14
27425;BME280;15244;49.088;11.886;2023-04-08T03:57:43;95848.72;;;9.36;36.23
27425;BME280;15244;49.088;11.886;2023-04-08T04:02:57;95851.81;;;9.35;36.29
27425;BME280;15244;49.088;11.886;2023-04-08T04:08:26;95854.06;;;9.29;36.36
27425;BME280;15244;49.088;11.886;2023-04-08T04:13:41;95854.47;;;9.27;36.22
27425;BME280;15244;49.088;11.886;2023-04-08T04:19:10;95861.84;;;9.27;36.49
27425;BME280;15244;49.088;11.886;2023-04-08T04:24:25;95860.66;;;9.24;36.37
27425;BME280;15244;49.088;11.886;2023-04-08T04:29:54;95855.22;;;9.24;36.32
27425;BME280;15244;49.088;11.886;2023-04-08T04:35:10;95860.66;;;9.24;36.49
27425;BME280;15244;49.088;11.886;2023-04-08T04:40:38;95867.63;;;9.22;36.43
27425;BME280;15244;49.088;11.886;2023-04-08T04:45:54;95868.31;;;9.15;36.53
27425;BME280;15244;49.088;11.886;2023-04-08T04:51:22;95874.50;;;9.12;36.53
27425;BME280;15244;49.088;11.886;2023-04-08T04:56:37;95872.47;;;9.05;36.57
27425;BME280;15244;49.088;11.886;2023-04-08T05:02:06;95884.44;;;9.01;36.99
27425;BME280;15244;49.088;11.886;2023-04-08T05:07:21;95896.84;;;8.98;37.07
27425;BME280;15244;49.088;11.886;2023-04-08T05:12:50;95891.38;;;8.95;37.16
27425;BME280;15244;49.088;11.886;2023-04-08T05:18:05;95892.13;;;8.95;37.44
27425;BME280;15244;49.088;11.886;2023-04-08T05:23:34;95887.44;;;8.92;37.41
27425;BME280;15244;49.088;11.886;2023-04-08T05:28:49;95902.41;;;8.79;37.79
27425;BME280;15244;49.088;11.886;2023-04-08T05:34:18;95909.38;;;8.76;38.40
27425;BME280;15244;49.088;11.886;2023-04-08T05:39:36;95909.28;;;8.69;38.22
27425;BME280;15244;49.088;11.886;2023-04-08T05:45:05;95920.06;;;8.65;38.57
27425;BME280;15244;49.088;11.886;2023-04-08T05:50:20;95933.78;;;8.46;39.48
27425;BME280;15244;49.088;11.886;2023-04-08T05:55:49;95939.25;;;8.27;41.08
27425;BME280;15244;49.088;11.886;2023-04-08T06:01:04;95943.47;;;8.01;41.73
27425;BME280;15244;49.088;11.886;2023-04-08T06:06:33;95949.06;;;7.89;42.22
27425;BME280;15244;49.088;11.886;2023-04-08T06:11:48;95963.78;;;7.88;42.90
27425;BME280;15244;49.088;11.886;2023-04-08T06:17:18;95966.84;;;7.86;43.49
27425;BME280;15244;49.088;11.886;2023-04-08T06:22:34;95967.59;;;7.83;44.05
27425;BME280;15244;49.088;11.886;2023-04-08T06:28:03;95964.78;;;7.79;44.25
27425;BME280;15244;49.088;11.886;2023-04-08T06:33:18;95981.22;;;7.87;44.85
27425;BME280;15244;49.088;11.886;2023-04-08T06:38:47;95989.78;;;7.89;44.78
27425;BME280;15244;49.088;11.886;2023-04-08T06:44:02;95985.84;;;7.86;45.08
27425;BME280;15244;49.088;11.886;2023-04-08T06:49:31;95987.41;;;7.87;45.20
27425;BME280;15244;49.088;11.886;2023-04-08T06:54:46;95991.22;;;7.82;45.54
27425;BME280;15244;49.088;11.886;2023-04-08T07:00:15;95992.00;;;7.83;45.85
27425;BME280;15244;49.088;11.886;2023-04-08T07:05:30;96007.56;;;7.86;46.05
27425;BME280;15244;49.088;11.886;2023-04-08T07:10:59;96009.66;;;7.73;46.25
27425;BME280;15244;49.088;11.886;2023-04-08T07:16:14;96001.81;;;7.68;46.86
27425;BME280;15244;49.088;11.886;2023-04-08T07:21:43;96007.22;;;7.68;46.82
27425;BME280;15244;49.088;11.886;2023-04-08T07:26:58;96017.03;;;7.73;47.13
27425;BME280;15244;49.088;11.886;2023-04-08T07:32:27;96017.75;;;7.70;47.47
27425;BME280;15244;49.088;11.886;2023-04-08T07:37:42;96019.25;;;7.67;47.51
27425;BME280;15244;49.088;11.886;2023-04-08T07:43:11;96028.88;;;7.65;47.49
27425;BME280;15244;49.088;11.886;2023-04-08T07:48:26;96024.22;;;7.65;47.87
27425;BME280;15244;49.088;11.886;2023-04-08T07:53:55;96028.94;;;7.68;48.03
27425;BME280;15244;49.088;11.886;2023-04-08T07:59:10;96032.88;;;7.71;48.08
27425;BME280;15244;49.088;11.886;2023-04-08T08:04:39;96040.00;;;7.79;48.49
27425;BME280;15244;49.088;11.886;2023-04-08T08:10:01;96045.56;;;7.86;48.58
27425;BME280;15244;49.088;11.886;2023-04-08T08:15:30;96046.59;;;7.78;48.42
27425;BME280;15244;49.088;11.886;2023-04-08T08:20:45;96053.84;;;7.74;48.53
27425;BME280;15244;49.088;11.886;2023-04-08T08:26:14;96060.28;;;7.66;48.70
27425;BME280;15244;49.088;11.886;2023-04-08T08:31:29;96063.44;;;7.68;49.08
27425;BME280;15244;49.088;11.886;2023-04-08T08:36:58;96058.78;;;7.68;49.27
27425;BME280;15244;49.088;11.886;2023-04-08T08:42:23;96068.16;;;7.71;49.34
27425;BME280;15244;49.088;11.886;2023-04-08T08:47:52;96056.50;;;7.70;49.42
27425;BME280;15244;49.088;11.886;2023-04-08T08:53:07;96063.88;;;7.70;50.13
27425;BME280;15244;49.088;11.886;2023-04-08T08:58:36;96068.66;;;7.76;50.39
27425;BME280;15244;49.088;11.886;2023-04-08T09:09:50;96085.16;;;7.87;50.77
27425;BME280;15244;49.088;11.886;2023-04-08T09:15:19;96074.56;;;7.82;50.35
27425;BME280;15244;49.088;11.886;2023-04-08T09:20:34;96085.84;;;7.84;50.77
27425;BME280;15244;49.088;11.886;2023-04-08T09:26:15;96092.72;;;7.78;51.09
27425;BME280;15244;49.088;11.886;2023-04-08T09:31:33;96097.88;;;7.83;51.00
27425;BME280;15244;49.088;11.886;2023-04-08T09:37:02;96098.22;;;7.81;50.71
27425;BME280;15244;49.088;11.886;2023-04-08T09:42:19;96094.00;;;7.84;51.42
27425;BME280;15244;49.088;11.886;2023-04-08T09:53:13;96102.50;;;8.02;51.32
27425;BME280;15244;49.088;11.886;2023-04-08T09:58:51;96103.81;;;8.08;51.33
27425;BME280;15244;49.088;11.886;2023-04-08T10:04:13;96107.44;;;8.16;51.47
27425;BME280;15244;49.088;11.886;2023-04-08T10:09:42;96113.59;;;8.13;51.66
27425;BME280;15244;49.088;11.886;2023-04-08T10:15:24;96114.53;;;8.20;51.69
27425;BME280;15244;49.088;11.886;2023-04-08T10:20:47;96109.59;;;8.26;51.69
27425;BME280;15244;49.088;11.886;2023-04-08T10:26:32;96102.00;;;8.35;51.67
27425;BME280;15244;49.088;11.886;2023-04-08T10:32:01;96095.66;;;8.47;51.84
27425;BME280;15244;49.088;11.886;2023-04-08T10:37:16;96105.16;;;8.57;51.58
27425;BME280;15244;49.088;11.886;2023-04-08T10:42:45;96111.50;;;8.64;51.41
27425;BME280;15244;49.088;11.886;2023-04-08T10:48:20;96112.75;;;8.71;51.38
27425;BME280;15244;49.088;11.886;2023-04-08T10:53:49;96120.22;;;8.74;51.42
27425;BME280;15244;49.088;11.886;2023-04-08T10:59:04;96122.00;;;8.66;51.41
27425;BME280;15244;49.088;11.886;2023-04-08T11:04:40;96122.06;;;8.70;51.37
27425;BME280;15244;49.088;11.886;2023-04-08T11:10:02;96112.41;;;8.72;51.52
27425;BME280;15244;49.088;11.886;2023-04-08T11:15:32;96118.75;;;8.80;51.46
27425;BME280;15244;49.088;11.886;2023-04-08T11:20:50;96125.53;;;8.89;51.41
27425;BME280;15244;49.088;11.886;2023-04-08T11:26:19;96131.91;;;9.01;51.40
27425;BME280;15244;49.088;11.886;2023-04-08T11:31:34;96121.94;;;9.08;51.57
27425;BME280;15244;49.088;11.886;2023-04-08T11:37:03;96115.97;;;8.99;51.41
27425;BME280;15244;49.088;11.886;2023-04-08T11:42:32;96117.84;;;8.95;51.36
27425;BME280;15244;49.088;11.886;2023-04-08T11:48:08;96122.50;;;8.95;51.48
27425;BME280;15244;49.088;11.886;2023-04-08T11:53:26;96120.59;;;8.99;51.48
27425;BME280;15244;49.088;11.886;2023-04-08T11:58:56;96118.75;;;9.03;51.66
27425;BME280;15244;49.088;11.886;2023-04-08T12:04:11;96118.09;;;9.09;51.93
27425;BME280;15244;49.088;11.886;2023-04-08T12:09:40;96117.00;;;9.14;51.66
27425;BME280;15244;49.088;11.886;2023-04-08T12:14:55;96126.16;;;9.29;51.54
27425;BME280;15244;49.088;11.886;2023-04-08T12:20:24;96121.66;;;9.40;51.34
27425;BME280;15244;49.088;11.886;2023-04-08T12:25:39;96130.00;;;9.51;51.44
27425;BME280;15244;49.088;11.886;2023-04-08T12:31:08;96130.41;;;9.53;51.28
27425;BME280;15244;49.088;11.886;2023-04-08T12:36:23;96136.91;;;9.45;51.52
27425;BME280;15244;49.088;11.886;2023-04-08T12:41:55;96136.59;;;9.50;51.24
27425;BME280;15244;49.088;11.886;2023-04-08T12:47:10;96141.16;;;9.42;50.97
27425;BME280;15244;49.088;11.886;2023-04-08T12:52:40;96137.16;;;9.36;51.46
27425;BME280;15244;49.088;11.886;2023-04-08T12:57:55;96131.22;;;9.30;51.68
27425;BME280;15244;49.088;11.886;2023-04-08T13:03:24;96135.78;;;9.23;52.15
27425;BME280;15244;49.088;11.886;2023-04-08T13:08:39;96141.94;;;9.20;52.58
27425;BME280;15244;49.088;11.886;2023-04-08T13:14:08;96137.88;;;9.33;52.38
27425;BME280;15244;49.088;11.886;2023-04-08T13:19:23;96144.75;;;9.50;52.34
27425;BME280;15244;49.088;11.886;2023-04-08T13:24:45;96143.03;;;9.65;52.35
27425;BME280;15244;49.088;11.886;2023-04-08T13:30:07;96143.31;;;9.86;51.99
27425;BME280;15244;49.088;11.886;2023-04-08T13:35:22;96149.69;;;9.97;51.77
27425;BME280;15244;49.088;11.886;2023-04-08T13:40:51;96152.28;;;10.17;51.56
27425;BME280;15244;49.088;11.886;2023-04-08T13:46:06;96140.84;;;10.34;51.78
27425;BME280;15244;49.088;11.886;2023-04-08T13:51:35;96139.09;;;10.53;51.49
27425;BME280;15244;49.088;11.886;2023-04-08T13:56:50;96139.63;;;10.66;51.14
27425;BME280;15244;49.088;11.886;2023-04-08T14:02:19;96134.75;;;10.82;51.10
27425;BME280;15244;49.088;11.886;2023-04-08T14:07:35;96128.66;;;10.99;51.12
27425;BME280;15244;49.088;11.886;2023-04-08T14:13:04;96138.56;;;11.15;50.48
27425;BME280;15244;49.088;11.886;2023-04-08T14:18:19;96146.81;;;11.25;50.25
27425;BME280;15244;49.088;11.886;2023-04-08T14:23:48;96155.34;;;11.20;49.77
27425;BME280;15244;49.088;11.886;2023-04-08T14:29:04;96156.47;;;11.12;49.41
27425;BME280;15244;49.088;11.886;2023-04-08T14:34:33;96162.78;;;10.82;49.64
27425;BME280;15244;49.088;11.886;2023-04-08T14:39:48;96162.25;;;10.66;50.08
27425;BME280;15244;49.088;11.886;2023-04-08T14:45:17;96167.31;;;10.68;49.93
27425;BME280;15244;49.088;11.886;2023-04-08T14:50:32;96163.03;;;10.67;50.27
27425;BME280;15244;49.088;11.886;2023-04-08T14:56:01;96160.75;;;10.76;50.45
27425;BME280;15244;49.088;11.886;2023-04-08T15:01:16;96163.13;;;10.77;50.81
27425;BME280;15244;49.088;11.886;2023-04-08T15:06:45;96167.28;;;11.01;50.48
27425;BME280;15244;49.088;11.886;2023-04-08T15:12:15;96167.41;;;11.16;50.22
27425;BME280;15244;49.088;11.886;2023-04-08T15:17:45;96177.22;;;11.24;50.26
27425;BME280;15244;49.088;11.886;2023-04-08T15:23:00;96180.41;;;11.33;49.96
27425;BME280;15244;49.088;11.886;2023-04-08T15:28:29;96185.53;;;11.42;50.05
27425;BME280;15244;49.088;11.886;2023-04-08T15:33:45;96191.50;;;11.51;49.85
27425;BME280;15244;49.088;11.886;2023-04-08T15:39:14;96191.91;;;11.57;49.51
27425;BME280;15244;49.088;11.886;2023-04-08T15:44:30;96189.22;;;11.60;49.38
27425;BME280;15244;49.088;11.886;2023-04-08T15:49:59;96187.28;;;11.64;48.91
27425;BME280;15244;49.088;11.886;2023-04-08T15:55:14;96192.38;;;11.66;49.08
27425;BME280;15244;49.088;11.886;2023-04-08T16:00:43;96195.13;;;11.66;48.66
27425;BME280;15244;49.088;11.886;2023-04-08T16:05:58;96202.94;;;11.67;48.80
27425;BME280;15244;49.088;11.886;2023-04-08T16:11:27;96203.31;;;11.69;48.68
27425;BME280;15244;49.088;11.886;2023-04-08T16:16:56;96216.97;;;11.66;48.15
27425;BME280;15244;49.088;11.886;2023-04-08T16:22:11;96208.75;;;11.62;48.31
27425;BME280;15244;49.088;11.886;2023-04-08T16:27:40;96222.78;;;11.61;48.22
27425;BME280;15244;49.088;11.886;2023-04-08T16:32:55;96225.09;;;11.59;48.17
27425;BME280;15244;49.088;11.886;2023-04-08T16:38:24;96232.16;;;11.60;48.25
27425;BME280;15244;49.088;11.886;2023-04-08T16:43:40;96242.66;;;11.61;47.90
27425;BME280;15244;49.088;11.886;2023-04-08T16:49:09;96237.22;;;11.61;47.49
27425;BME280;15244;49.088;11.886;2023-04-08T16:54:25;96248.13;;;11.58;47.61
27425;BME280;15244;49.088;11.886;2023-04-08T16:59:54;96250.78;;;11.54;47.38
27425;BME280;15244;49.088;11.886;2023-04-08T17:05:09;96257.03;;;11.51;47.22
27425;BME280;15244;49.088;11.886;2023-04-08T17:10:38;96259.72;;;11.47;46.90
27425;BME280;15244;49.088;11.886;2023-04-08T17:15:53;96265.19;;;11.47;47.02
27425;BME280;15244;49.088;11.886;2023-04-08T17:21:22;96264.34;;;11.43;46.55
27425;BME280;15244;49.088;11.886;2023-04-08T17:26:39;96271.28;;;11.34;46.59
27425;BME280;15244;49.088;11.886;2023-04-08T17:32:08;96286.00;;;11.22;46.57
27425;BME280;15244;49.088;11.886;2023-04-08T17:37:23;96285.94;;;11.18;46.35
27425;BME280;15244;49.088;11.886;2023-04-08T17:42:52;96294.09;;;11.15;46.27
27425;BME280;15244;49.088;11.886;2023-04-08T17:48:07;96300.66;;;11.10;46.14
27425;BME280;15244;49.088;11.886;2023-04-08T17:53:36;96302.53;;;11.02;46.50
27425;BME280;15244;49.088;11.886;2023-04-08T17:58:51;96309.88;;;10.98;46.30
27425;BME280;15244;49.088;11.886;2023-04-08T18:04:20;96319.59;;;10.96;46.31
27425;BME280;15244;49.088;11.886;2023-04-08T18:09:35;96316.09;;;10.95;46.52
27425;BME280;15244;49.088;11.886;2023-04-08T18:15:04;96330.50;;;10.96;46.66
27425;BME280;15244;49.088;11.886;2023-04-08T18:20:19;96330.91;;;10.94;46.52
27425;BME280;15244;49.088;11.886;2023-04-08T18:25:48;96337.06;;;10.91;46.39
27425;BME280;15244;49.088;11.886;2023-04-08T18:31:04;96344.84;;;10.89;46.58
27425;BME280;15244;49.088;11.886;2023-04-08T18:36:33;96349.50;;;10.89;46.68
27425;BME280;15244;49.088;11.886;2023-04-08T18:41:48;96364.28;;;10.84;46.81
27425;BME280;15244;49.088;11.886;2023-04-08T18:47:17;96366.06;;;10.73;46.92
27425;BME280;15244;49.088;11.886;2023-04-08T18:52:32;96374.06;;;10.58;47.11
27425;BME280;15244;49.088;11.886;2023-04-08T18:58:01;96376.19;;;10.46;47.24
27425;BME280;15244;49.088;11.886;2023-04-08T19:03:16;96383.09;;;10.39;47.74
27425;BME280;15244;49.088;11.886;2023-04-08T19:08:45;96392.31;;;10.31;47.79
27425;BME280;15244;49.088;11.886;2023-04-08T19:14:00;96404.94;;;10.20;47.55
27425;BME280;15244;49.088;11.886;2023-04-08T19:19:29;96402.00;;;10.06;48.12
27425;BME280;15244;49.088;11.886;2023-04-08T19:24:44;96409.25;;;9.98;48.25
27425;BME280;15244;49.088;11.886;2023-04-08T19:30:13;96406.84;;;9.93;48.47
27425;BME280;15244;49.088;11.886;2023-04-08T19:35:28;96409.13;;;9.91;48.09
27425;BME280;15244;49.088;11.886;2023-04-08T19:40:57;96413.41;;;9.92;48.67
27425;BME280;15244;49.088;11.886;2023-04-08T19:46:12;96410.34;;;9.93;49.01
27425;BME280;15244;49.088;11.886;2023-04-08T19:51:41;96418.66;;;10.01;49.01
27425;BME280;15244;49.088;11.886;2023-04-08T19:56:56;96419.47;;;10.05;48.92
27425;BME280;15244;49.088;11.886;2023-04-08T20:02:25;96416.41;;;10.06;48.74
27425;BME280;15244;49.088;11.886;2023-04-08T20:07:41;96416.44;;;10.10;48.79
27425;BME280;15244;49.088;11.886;2023-04-08T20:13:10;96417.25;;;10.10;48.99
27425;BME280;15244;49.088;11.886;2023-04-08T20:18:25;96427.00;;;10.11;48.92
27425;BME280;15244;49.088;11.886;2023-04-08T20:23:54;96432.09;;;10.13;48.69
27425;BME280;15244;49.088;11.886;2023-04-08T20:29:09;96429.00;;;10.14;48.64
27425;BME280;15244;49.088;11.886;2023-04-08T20:34:38;96430.16;;;10.13;48.78
27425;BME280;15244;49.088;11.886;2023-04-08T20:39:53;96436.69;;;10.09;48.79
27425;BME280;15244;49.088;11.886;2023-04-08T20:45:22;96435.34;;;9.99;48.88
27425;BME280;15244;49.088;11.886;2023-04-08T20:50:37;96430.44;;;9.85;48.81
27425;BME280;15244;49.088;11.886;2023-04-08T20:56:06;96437.56;;;9.70;49.14
27425;BME280;15244;49.088;11.886;2023-04-08T21:01:21;96429.25;;;9.63;49.08
27425;BME280;15244;49.088;11.886;2023-04-08T21:06:50;96441.34;;;9.66;49.21
27425;BME280;15244;49.088;11.886;2023-04-08T21:12:05;96435.97;;;9.69;49.50
27425;BME280;15244;49.088;11.886;2023-04-08T21:17:34;96435.41;;;9.60;49.61
27425;BME280;15244;49.088;11.886;2023-04-08T21:22:49;96435.06;;;9.42;50.03
27425;BME280;15244;49.088;11.886;2023-04-08T21:28:19;96433.25;;;9.30;49.91
27425;BME280;15244;49.088;11.886;2023-04-08T21:33:34;96435.06;;;9.23;49.99
27425;BME280;15244;49.088;11.886;2023-04-08T21:39:03;96441.78;;;9.29;50.10
27425;BME280;15244;49.088;11.886;2023-04-08T21:44:18;96439.16;;;9.32;50.28
27425;BME280;15244;49.088;11.886;2023-04-08T21:49:47;96436.47;;;9.36;50.04
27425;BME280;15244;49.088;11.886;2023-04-08T21:55:02;96438.72;;;9.30;49.96
27425;BME280;15244;49.088;11.886;2023-04-08T22:00:32;96441.28;;;9.23;50.23
27425;BME280;15244;49.088;11.886;2023-04-08T22:05:47;96451.03;;;9.24;50.11
27425;BME280;15244;49.088;11.886;2023-04-08T22:11:16;96440.66;;;9.30;50.25
27425;BME280;15244;49.088;11.886;2023-04-08T22:16:45;96438.38;;;9.32;50.23
27425;BME280;15244;49.088;11.886;2023-04-08T22:22:00;96440.72;;;9.33;50.16
27425;BME280;15244;49.088;11.886;2023-04-08T22:27:29;96439.44;;;9.27;49.98
27425;BME280;15244;49.088;11.886;2023-04-08T22:32:44;96435.94;;;9.27;50.02
27425;BME280;15244;49.088;11.886;2023-04-08T22:38:13;96440.66;;;9.30;49.98
27425;BME280;15244;49.088;11.886;2023-04-08T22:43:28;96437.53;;;9.31;49.87
27425;BME280;15244;49.088;11.886;2023-04-08T22:48:57;96434.47;;;9.33;50.13
27425;BME280;15244;49.088;11.886;2023-04-08T22:54:12;96436.84;;;9.35;50.01
27425;BME280;15244;49.088;11.886;2023-04-08T22:59:41;96434.91;;;9.35;50.00
27425;BME280;15244;49.088;11.886;2023-04-08T23:04:56;96443.09;;;9.35;49.73
27425;BME280;15244;49.088;11.886;2023-04-08T23:10:25;96440.38;;;9.35;49.86
27425;BME280;15244;49.088;11.886;2023-04-08T23:15:54;96443.09;;;9.35;49.82
27425;BME280;15244;49.088;11.886;2023-04-08T23:21:09;96444.31;;;9.38;49.97
27425;BME280;15244;49.088;11.886;2023-04-08T23:26:38;96448.16;;;9.37;49.73
27425;BME280;15244;49.088;11.886;2023-04-08T23:31:53;96445.44;;;9.37;49.88
27425;BME280;15244;49.088;11.886;2023-04-08T23:37:22;96451.69;;;9.37;49.84
27425;BME280;15244;49.088;11.886;2023-04-08T23:42:38;96447.31;;;9.32;49.81
27425;BME280;15244;49.088;11.886;2023-04-08T23:48:07;96442.59;;;9.29;49.96
27425;BME280;15244;49.088;11.886;2023-04-08T23:53:22;96442.88;;;9.24;49.94
27425;BME280;15244;49.088;11.886;2023-04-08T23:58:51;96442.50;;;9.26;49.80
